createdAt,value
2023-01-22T16:05:08.538Z,17.10
2023-01-22T16:10:01.566Z,16.60
2023-01-22T16:14:54.543Z,22.80
2023-01-22T16:19:50.495Z,17.70
2023-01-22T16:24:43.480Z,18.60
2023-01-22T16:29:36.405Z,20.10
2023-01-22T16:34:29.333Z,21.60
2023-01-22T16:39:25.994Z,20.00
2023-01-22T16:44:24.666Z,17.70
2023-01-22T16:49:29.864Z,18.40
2023-01-22T16:54:28.099Z,18.20
2023-01-22T16:59:21.624Z,18.70
2023-01-22T17:04:15.047Z,18.70
2023-01-22T17:09:09.236Z,17.10
2023-01-22T17:14:02.971Z,21.30
2023-01-22T17:18:59.129Z,17.40
2023-01-22T17:23:51.917Z,19.50
2023-01-22T17:28:46.075Z,19.70
2023-01-22T17:33:38.910Z,17.80
2023-01-22T17:38:37.412Z,17.00
2023-01-22T17:43:31.595Z,18.60
2023-01-22T17:48:24.403Z,17.30
2023-01-22T17:53:17.177Z,19.60
2023-01-22T17:58:10.022Z,19.10
2023-01-22T18:03:02.839Z,19.90
2023-01-22T18:07:55.662Z,17.80
2023-01-22T18:12:49.257Z,16.90
2023-01-22T18:17:42.153Z,18.20
2023-01-22T18:22:34.934Z,20.60
2023-01-22T18:27:28.851Z,18.80
2023-01-22T18:32:22.619Z,18.40
2023-01-22T18:37:15.643Z,18.70
2023-01-22T18:42:08.669Z,20.60
2023-01-22T18:47:02.246Z,21.00
2023-01-22T18:51:59.405Z,23.50
2023-01-22T18:56:52.226Z,20.70
2023-01-22T19:01:51.386Z,20.20
2023-01-22T19:06:48.135Z,23.40
2023-01-22T19:11:45.447Z,20.30
2023-01-22T19:16:39.798Z,18.00
2023-01-22T19:21:33.027Z,18.90
2023-01-22T19:26:31.309Z,17.20
2023-01-22T19:31:29.996Z,21.20
2023-01-22T19:36:24.627Z,18.20
2023-01-22T19:41:19.101Z,17.90
2023-01-22T19:46:14.085Z,18.80
2023-01-22T19:51:13.193Z,18.00
2023-01-22T19:56:15.403Z,17.60
2023-01-22T20:01:13.317Z,21.00
2023-01-22T20:06:09.773Z,20.10
2023-01-22T20:11:03.810Z,18.50
2023-01-22T20:15:57.744Z,19.50
2023-01-22T20:20:54.201Z,18.30
2023-01-22T20:25:47.083Z,18.70
2023-01-22T20:30:40.419Z,20.60
2023-01-22T20:35:33.261Z,20.90
2023-01-22T20:40:26.906Z,20.00
2023-01-22T20:45:20.509Z,19.20
2023-01-22T20:50:13.732Z,19.90
2023-01-22T20:55:07.145Z,17.20
2023-01-22T21:00:00.020Z,18.70
2023-01-22T21:04:53.971Z,17.30
2023-01-22T21:09:47.486Z,21.80
2023-01-22T21:14:40.944Z,16.50
2023-01-22T21:19:33.777Z,16.50
2023-01-22T21:24:26.670Z,17.60
2023-01-22T21:29:24.247Z,15.70
2023-01-22T21:34:21.311Z,14.30
2023-01-22T21:39:17.428Z,16.60
2023-01-22T21:44:32.840Z,17.20
2023-01-22T21:49:25.774Z,16.50
2023-01-22T21:54:26.344Z,15.80
2023-01-22T21:59:19.404Z,17.60
2023-01-22T22:04:13.864Z,16.10
2023-01-22T22:09:19.927Z,15.80
2023-01-22T22:14:13.712Z,14.50
2023-01-22T22:19:07.983Z,15.90
2023-01-22T22:24:00.841Z,16.80
2023-01-22T22:28:53.991Z,16.40
2023-01-22T22:33:49.473Z,16.70
2023-01-22T22:38:43.672Z,15.40
2023-01-22T22:43:39.214Z,15.10
2023-01-22T22:48:32.900Z,17.00
2023-01-22T22:53:26.354Z,16.10
2023-01-22T22:58:20.807Z,15.30
2023-01-22T23:03:13.746Z,15.50
2023-01-22T23:08:07.923Z,14.30
2023-01-22T23:13:03.482Z,14.60
2023-01-22T23:17:59.048Z,15.20
2023-01-22T23:22:56.332Z,16.00
2023-01-22T23:27:49.918Z,15.00
2023-01-22T23:32:44.497Z,14.70
2023-01-22T23:37:37.723Z,14.30
2023-01-22T23:42:31.406Z,14.60
2023-01-22T23:47:27.337Z,15.20
2023-01-22T23:52:20.166Z,16.30
2023-01-22T23:57:13.328Z,14.10
